MST,Max TemperatureF,Mean TemperatureF,Min TemperatureF,Max Dew PointF,MeanDew PointF,Min DewpointF,Max Humidity, Mean Humidity, Min Humidity, Max Sea Level PressureIn, Mean Sea Level PressureIn, Min Sea Level PressureIn, Max VisibilityMiles, Mean VisibilityMiles, Min VisibilityMiles, Max Wind SpeedMPH, Mean Wind SpeedMPH, Max Gust SpeedMPH,PrecipitationIn, CloudCover, Events, WindDirDegrees
2011-10-1,84,74,63,56,46,42,73,39,25,30.14,30.01,29.92,10,10,10,13,7,,0.00,4,Rain-Thunderstorm,165
2011-10-2,80,70,60,56,51,46,78,58,30,30.21,30.04,29.99,10,10,7,6,4,,0.00,1,Rain-Thunderstorm,189
2011-10-3,80,68,57,54,48,43,82,45,28,30.21,30.00,29.89,10,10,10,10,4,,0.02,5,Rain-Thunderstorm,155
2011-10-4,80,70,60,52,44,37,72,41,23,29.96,29.85,29.66,10,10,8,22,7,36,0.01,5,Rain,214
2011-10-5,78,66,53,45,37,25,72,39,14,29.89,29.83,29.74,10,10,10,18,8,30,0.00,2,,216
2011-10-6,71,64,57,46,39,23,67,40,24,29.78,29.74,29.70,10,10,10,34,11,46,0.00,3,,229
2011-10-7,62,54,46,44,34,24,67,45,27,30.01,29.88,29.75,10,10,10,18,10,26,0.00,4,,277
2011-10-8,68,56,44,32,21,9,57,30,11,30.00,29.95,29.87,10,10,10,9,3,,0.00,0,,251
2011-10-9,73,60,46,27,23,21,42,26,15,30.07,29.89,29.54,10,10,10,12,4,20,0.00,0,,162
2011-10-10,80,64,48,27,25,23,39,24,13,29.92,29.87,29.80,10,10,10,12,5,,0.00,0,,231
2011-10-11,82,66,51,27,22,16,35,20,9,29.90,29.86,29.81,10,10,10,10,6,,0.00,0,,256
2011-10-12,84,70,55,30,28,23,33,22,13,29.93,29.89,29.85,10,10,10,8,4,,0.00,0,,163
2011-10-13,89,72,55,29,27,23,33,20,9,29.96,29.89,29.81,10,10,10,13,4,21,0.00,0,,243
2011-10-14,89,76,62,30,28,26,27,19,11,29.93,29.88,29.83,10,10,10,10,6,,0.00,0,,220
2011-10-15,89,74,59,28,26,25,28,17,10,30.13,29.92,29.84,10,10,10,13,5,,0.00,0,,202
2011-10-16,90,76,62,32,28,24,29,18,9,29.98,29.94,29.88,10,10,10,15,9,25,0.00,0,,235
2011-10-17,82,72,62,34,31,27,34,23,14,30.02,29.97,29.94,10,10,10,18,11,26,0.00,0,,275
2011-10-18,84,72,60,34,28,25,33,21,12,30.17,29.98,29.91,10,10,10,9,5,,0.00,0,,145
2011-10-19,87,71,55,28,26,23,31,19,10,30.00,29.91,29.83,10,10,10,15,7,,0.00,0,,211
2011-10-20,82,72,61,43,32,28,45,25,14,30.02,29.96,29.89,10,10,10,23,9,30,0.00,0,,238
2011-10-21,78,68,57,50,44,39,62,42,26,30.11,30.04,29.99,10,10,10,9,5,,0.00,3,,201
2011-10-22,82,70,59,50,38,33,52,32,17,30.19,30.02,29.94,10,10,10,9,6,,0.00,0,,248
2011-10-23,82,72,61,36,33,30,37,26,16,30.02,29.98,29.92,10,10,10,9,4,,0.00,0,,198
2011-10-24,82,70,59,46,38,30,40,32,21,30.18,30.01,29.93,10,10,10,16,5,26,0.00,4,Rain-Thunderstorm,240
2011-10-25,80,70,60,43,36,30,45,30,20,30.08,29.96,29.88,10,10,10,22,11,29,0.00,3,,238
2011-10-26,75,63,48,46,40,30,59,42,25,29.87,29.80,29.72,10,10,10,23,11,37,0.00,1,,235
2011-10-27,68,56,44,32,23,18,49,30,18,29.99,29.92,29.83,10,10,10,10,6,,0.00,0,,252
2011-10-28,73,58,44,30,28,25,49,32,19,30.08,30.04,30.01,10,10,10,10,5,16,0.00,2,,144
2011-10-29,75,54,32,32,29,25,100,33,15,30.13,30.03,29.96,10,10,10,10,3,,0.00,2,,240
2011-10-30,79,65,51,29,25,20,38,24,12,30.16,30.04,29.99,10,10,10,9,6,,0.00,0,,202
2011-10-31,80,66,53,25,22,19,30,19,10,30.05,29.97,29.90,10,10,10,10,4,,0.00,1,,217